Time;durP1;ratioP1;P1;durP2;ratioP2;P2;SDS_P1;SDS_P2;PMS_P1;PMS_P2;Temp;Humidity;BMP_temperature;BMP_pressure;BME280_temperature;BME280_humidity;BME280_pressure;Samples;Min_cycle;Max_cycle;Signal;HPM_P1;HPM_P2
2023/02/08 00:01:38;;;;;;;;;17.25;13.50;;;;;;;;5016762;28;51159;-49
2023/02/08 00:04:22;;;;;;;;;17.25;15.75;;;;;;;;5022711;28;51195;-50
2023/02/08 00:07:06;;;;;;;;;18.25;15.25;;;;;;;;5016534;28;51198;-51
2023/02/08 00:09:51;;;;;;;;;17.00;14.00;;;;;;;;5016266;28;51309;-50
2023/02/08 00:12:36;;;;;;;;;13.75;12.50;;;;;;;;5017051;28;51210;-51
2023/02/08 00:15:20;;;;;;;;;18.00;15.00;;;;;;;;5015852;28;51147;-49
2023/02/08 00:18:04;;;;;;;;;20.75;14.00;;;;;;;;5017168;28;51126;-51
2023/02/08 00:20:49;;;;;;;;;16.50;13.75;;;;;;;;5016836;28;51222;-48
2023/02/08 00:23:33;;;;;;;;;14.00;14.00;;;;;;;;5015162;28;51186;-48
2023/02/08 00:26:17;;;;;;;;;15.00;13.25;;;;;;;;5016825;28;51143;-48
2023/02/08 00:29:02;;;;;;;;;17.00;14.75;;;;;;;;5016179;28;51521;-50
2023/02/08 00:31:46;;;;;;;;;15.75;13.25;;;;;;;;5018242;28;51123;-49
2023/02/08 00:34:31;;;;;;;;;16.50;13.00;;;;;;;;5018074;28;51435;-48
2023/02/08 00:37:15;;;;;;;;;13.75;13.75;;;;;;;;5015931;28;51199;-49
2023/02/08 00:40:01;;;;;;;;;17.00;13.00;;;;;;;;5016272;28;51326;-52
2023/02/08 00:42:45;;;;;;;;;15.50;14.00;;;;;;;;5014312;28;51244;-47
2023/02/08 00:45:31;;;;;;;;;18.75;12.75;;;;;;;;5015351;28;51302;-49
2023/02/08 00:48:15;;;;;;;;;12.75;12.75;;;;;;;;5017229;28;51132;-51
2023/02/08 00:51:00;;;;;;;;;16.50;14.25;;;;;;;;5019823;28;51205;-50
2023/02/08 00:53:44;;;;;;;;;19.00;14.25;;;;;;;;5017688;28;51428;-50
2023/02/08 00:56:29;;;;;;;;;18.75;17.50;;;;;;;;5018074;28;51554;-51
2023/02/08 00:59:13;;;;;;;;;18.75;16.25;;;;;;;;5016187;28;51104;-47
2023/02/08 01:01:58;;;;;;;;;20.25;15.00;;;;;;;;5018101;28;51257;-51
2023/02/08 01:04:42;;;;;;;;;12.50;10.25;;;;;;;;5015008;28;51465;-52
2023/02/08 01:07:27;;;;;;;;;21.25;14.75;;;;;;;;5017595;28;51214;-53
2023/02/08 01:10:11;;;;;;;;;17.50;14.25;;;;;;;;5018731;28;51076;-45
2023/02/08 01:12:55;;;;;;;;;15.50;15.50;;;;;;;;5016230;28;52438;-49
2023/02/08 01:15:40;;;;;;;;;16.75;14.50;;;;;;;;5020397;28;51115;-51
2023/02/08 01:18:24;;;;;;;;;19.50;16.25;;;;;;;;5021136;28;51415;-48
2023/02/08 01:21:10;;;;;;;;;20.50;14.50;;;;;;;;5019609;28;51077;-49
2023/02/08 01:23:54;;;;;;;;;19.25;17.00;;;;;;;;5021346;28;51401;-52
2023/02/08 01:26:38;;;;;;;;;16.00;15.00;;;;;;;;5023105;28;51131;-50
2023/02/08 01:29:23;;;;;;;;;18.25;13.50;;;;;;;;5019515;28;51465;-49
2023/02/08 01:32:07;;;;;;;;;18.75;15.00;;;;;;;;5021542;28;51129;-52
2023/02/08 01:34:51;;;;;;;;;18.50;16.00;;;;;;;;5018902;28;51151;-49
2023/02/08 01:37:36;;;;;;;;;24.50;14.25;;;;;;;;5020293;28;51394;-50
2023/02/08 01:40:20;;;;;;;;;14.25;11.25;;;;;;;;5018544;28;51121;-50
2023/02/08 01:43:16;;;;;;;;;16.75;13.00;;;;;;;;5020487;28;51535;-48
2023/02/08 01:46:00;;;;;;;;;18.00;16.75;;;;;;;;5016479;28;51327;-46
2023/02/08 01:48:45;;;;;;;;;21.50;15.25;;;;;;;;5019078;28;51385;-51
2023/02/08 01:51:31;;;;;;;;;15.25;13.75;;;;;;;;5020095;28;51319;-46
2023/02/08 01:54:17;;;;;;;;;19.00;15.00;;;;;;;;5018490;28;51630;-47
2023/02/08 01:57:02;;;;;;;;;15.25;12.50;;;;;;;;5019803;28;51119;-50
2023/02/08 01:59:49;;;;;;;;;15.75;14.75;;;;;;;;5024007;28;52262;-51
2023/02/08 02:02:34;;;;;;;;;15.50;14.50;;;;;;;;5018931;28;51398;-51
2023/02/08 02:05:20;;;;;;;;;16.75;14.00;;;;;;;;5018188;28;51083;-48
2023/02/08 02:08:05;;;;;;;;;20.50;15.75;;;;;;;;5020020;28;51169;-48
2023/02/08 02:10:49;;;;;;;;;16.50;14.50;;;;;;;;5017220;28;51527;-51
2023/02/08 02:13:36;;;;;;;;;20.50;15.00;;;;;;;;5019869;28;51869;-52
2023/02/08 02:16:20;;;;;;;;;16.25;12.25;;;;;;;;5018819;28;51096;-48
2023/02/08 02:19:10;;;;;;;;;19.50;14.75;;;;;;;;5022065;28;51612;-50
2023/02/08 02:22:02;;;;;;;;;20.25;15.25;;;;;;;;5018698;28;51159;-50
2023/02/08 02:24:52;;;;;;;;;17.00;15.00;;;;;;;;5019105;28;51188;-49
2023/02/08 02:27:52;;;;;;;;;16.50;14.00;;;;;;;;5020435;28;52594;-47
2023/02/08 02:30:55;;;;;;;;;22.50;14.00;;;;;;;;5019063;28;51335;-46
2023/02/08 02:33:48;;;;;;;;;14.50;13.25;;;;;;;;5020039;28;51559;-51
2023/02/08 02:36:32;;;;;;;;;20.50;12.75;;;;;;;;5021632;28;51179;-50
2023/02/08 02:39:28;;;;;;;;;15.50;13.50;;;;;;;;5018656;28;51516;-50
2023/02/08 02:45:29;;;;;;;;;16.50;15.25;;;;;;;;5020548;28;51397;-53
2023/02/08 02:48:22;;;;;;;;;17.25;14.25;;;;;;;;5018517;28;51156;-46
2023/02/08 02:51:06;;;;;;;;;20.50;17.25;;;;;;;;5020574;28;51187;-48
2023/02/08 02:53:53;;;;;;;;;16.50;15.50;;;;;;;;5024949;28;51126;-51
2023/02/08 02:56:41;;;;;;;;;13.25;13.25;;;;;;;;5021045;28;51121;-53
2023/02/08 02:59:26;;;;;;;;;19.50;16.00;;;;;;;;5018342;28;51172;-52
2023/02/08 03:02:10;;;;;;;;;13.50;12.50;;;;;;;;5016257;28;51148;-49
2023/02/08 03:04:55;;;;;;;;;19.25;14.75;;;;;;;;5018433;28;51347;-51
2023/02/08 03:07:55;;;;;;;;;18.75;15.75;;;;;;;;5016635;28;51147;-51
2023/02/08 03:10:45;;;;;;;;;17.25;14.50;;;;;;;;5014432;28;51220;-51
2023/02/08 03:13:48;;;;;;;;;13.00;12.00;;;;;;;;5015621;28;51201;-49
2023/02/08 03:16:33;;;;;;;;;19.00;15.75;;;;;;;;5019542;28;51182;-51
2023/02/08 03:19:21;;;;;;;;;18.50;15.00;;;;;;;;5015738;28;52170;-50
2023/02/08 03:22:35;;;;;;;;;15.00;13.75;;;;;;;;5015813;28;51700;-49
2023/02/08 03:25:26;;;;;;;;;20.25;16.00;;;;;;;;5014509;28;51193;-47
2023/02/08 03:28:18;;;;;;;;;20.25;16.00;;;;;;;;5018023;28;51164;-49
2023/02/08 03:31:02;;;;;;;;;20.25;16.75;;;;;;;;5015361;28;51155;-47
2023/02/08 03:33:53;;;;;;;;;18.00;16.50;;;;;;;;5014632;28;51197;-49
2023/02/08 03:36:46;;;;;;;;;14.75;14.25;;;;;;;;5015829;28;51497;-52
2023/02/08 03:39:33;;;;;;;;;14.50;13.25;;;;;;;;5016364;28;51201;-49
2023/02/08 03:42:24;;;;;;;;;17.00;14.00;;;;;;;;5015820;28;51169;-49
2023/02/08 03:45:12;;;;;;;;;16.25;15.50;;;;;;;;5017298;28;51165;-54
2023/02/08 03:47:58;;;;;;;;;17.25;15.75;;;;;;;;5018988;28;51128;-51
2023/02/08 03:50:45;;;;;;;;;17.50;16.00;;;;;;;;5015986;28;51093;-51
2023/02/08 03:53:37;;;;;;;;;19.25;16.25;;;;;;;;5020438;28;51168;-53
2023/02/08 03:56:25;;;;;;;;;15.75;13.75;;;;;;;;5015826;28;51076;-49
2023/02/08 03:59:19;;;;;;;;;17.25;14.75;;;;;;;;5015673;28;51125;-50
2023/02/08 04:02:05;;;;;;;;;21.25;13.75;;;;;;;;5019665;28;51478;-51
2023/02/08 04:04:50;;;;;;;;;17.25;10.00;;;;;;;;5016044;28;51148;-50
2023/02/08 04:07:35;;;;;;;;;12.50;11.25;;;;;;;;5016487;28;51120;-51
2023/02/08 04:10:19;;;;;;;;;17.50;13.50;;;;;;;;5015746;28;51445;-51
2023/02/08 04:13:04;;;;;;;;;19.25;14.25;;;;;;;;5017499;28;51680;-50
2023/02/08 04:15:48;;;;;;;;;16.75;15.00;;;;;;;;5013984;28;51216;-53
2023/02/08 04:18:32;;;;;;;;;18.00;16.75;;;;;;;;5016803;28;51346;-46
2023/02/08 04:21:17;;;;;;;;;18.50;16.25;;;;;;;;5001561;28;51190;-51
2023/02/08 04:24:01;;;;;;;;;21.75;16.50;;;;;;;;5015805;28;51244;-48
2023/02/08 04:26:46;;;;;;;;;17.00;14.75;;;;;;;;5016358;28;51528;-48
2023/02/08 04:29:30;;;;;;;;;17.25;13.50;;;;;;;;5018651;28;52193;-48
2023/02/08 04:32:15;;;;;;;;;19.25;16.25;;;;;;;;4999423;28;51190;-50
2023/02/08 04:34:59;;;;;;;;;22.25;17.00;;;;;;;;5012260;28;51181;-52
2023/02/08 04:37:44;;;;;;;;;17.00;14.50;;;;;;;;5015184;28;51254;-50
2023/02/08 04:40:28;;;;;;;;;19.00;14.75;;;;;;;;5016900;28;51204;-47
2023/02/08 04:43:12;;;;;;;;;13.75;12.75;;;;;;;;5015383;28;51174;-51
2023/02/08 04:45:57;;;;;;;;;19.25;15.25;;;;;;;;5014359;28;51399;-49
2023/02/08 04:48:41;;;;;;;;;30.25;19.00;;;;;;;;5018593;28;51176;-48
2023/02/08 04:51:26;;;;;;;;;16.50;15.50;;;;;;;;5015745;28;51579;-50
2023/02/08 04:54:10;;;;;;;;;14.25;13.25;;;;;;;;5013906;28;51042;-48
2023/02/08 04:56:55;;;;;;;;;18.00;16.00;;;;;;;;5013748;28;51299;-48
2023/02/08 04:59:40;;;;;;;;;24.75;16.75;;;;;;;;5017485;28;51573;-51
2023/02/08 05:02:24;;;;;;;;;23.50;15.50;;;;;;;;4998232;28;51110;-51
2023/02/08 05:05:08;;;;;;;;;25.50;22.00;;;;;;;;5014332;28;51251;-48
2023/02/08 05:07:53;;;;;;;;;21.75;20.50;;;;;;;;5013969;28;51306;-49
2023/02/08 05:10:42;;;;;;;;;18.50;16.25;;;;;;;;5012802;28;51514;-52
2023/02/08 05:13:27;;;;;;;;;25.25;20.25;;;;;;;;5015996;28;51169;-47
2023/02/08 05:16:11;;;;;;;;;27.75;19.75;;;;;;;;5014075;28;51129;-48
2023/02/08 05:18:55;;;;;;;;;19.00;17.00;;;;;;;;5018334;28;51168;-49
2023/02/08 05:21:40;;;;;;;;;21.00;19.25;;;;;;;;5017245;28;51304;-48
2023/02/08 05:24:24;;;;;;;;;22.25;21.25;;;;;;;;5007887;28;51420;-51
2023/02/08 05:27:09;;;;;;;;;24.25;21.25;;;;;;;;5016225;28;51080;-51
2023/02/08 05:29:53;;;;;;;;;23.50;18.50;;;;;;;;5014794;28;51213;-46
2023/02/08 05:32:38;;;;;;;;;29.25;23.75;;;;;;;;5016080;28;51026;-50
2023/02/08 05:35:22;;;;;;;;;25.00;21.25;;;;;;;;5016593;28;52133;-49
2023/02/08 05:38:07;;;;;;;;;23.00;20.50;;;;;;;;5015030;28;52056;-46
2023/02/08 05:40:51;;;;;;;;;31.50;25.50;;;;;;;;5016867;28;51231;-53
2023/02/08 05:43:36;;;;;;;;;35.75;29.00;;;;;;;;5013957;28;51366;-49
2023/02/08 05:46:20;;;;;;;;;37.75;32.25;;;;;;;;5014096;28;52317;-50
2023/02/08 05:49:04;;;;;;;;;37.50;29.25;;;;;;;;5014999;28;52455;-53
2023/02/08 05:51:49;;;;;;;;;43.50;32.75;;;;;;;;5014289;28;51227;-48
2023/02/08 05:54:33;;;;;;;;;50.75;36.00;;;;;;;;5014775;28;51218;-48
2023/02/08 05:57:18;;;;;;;;;44.75;32.25;;;;;;;;5014956;28;51124;-48
2023/02/08 06:00:06;;;;;;;;;43.00;33.75;;;;;;;;5017919;28;51204;-47
2023/02/08 06:02:50;;;;;;;;;43.50;35.00;;;;;;;;5018837;28;51276;-53
2023/02/08 06:05:36;;;;;;;;;47.25;38.00;;;;;;;;5019121;28;51743;-48
2023/02/08 06:08:20;;;;;;;;;55.50;42.00;;;;;;;;5019607;28;51224;-47
2023/02/08 06:11:05;;;;;;;;;57.50;42.50;;;;;;;;5023331;28;52281;-49
2023/02/08 06:14:02;;;;;;;;;50.75;41.75;;;;;;;;5021123;28;52009;-48
2023/02/08 06:16:46;;;;;;;;;54.50;40.50;;;;;;;;5021168;28;51689;-47
2023/02/08 06:19:30;;;;;;;;;61.25;47.75;;;;;;;;5018231;28;51107;-50
2023/02/08 06:22:14;;;;;;;;;54.00;43.50;;;;;;;;5019672;28;51089;-48
2023/02/08 06:24:59;;;;;;;;;53.25;39.75;;;;;;;;5018785;28;51455;-51
2023/02/08 06:27:43;;;;;;;;;50.75;39.25;;;;;;;;5020278;28;51540;-50
2023/02/08 06:30:28;;;;;;;;;50.75;38.75;;;;;;;;5018059;28;51144;-48
2023/02/08 06:33:12;;;;;;;;;55.25;42.75;;;;;;;;5017916;28;51204;-47
2023/02/08 06:35:57;;;;;;;;;61.50;44.00;;;;;;;;5018821;28;51505;-50
2023/02/08 06:38:41;;;;;;;;;51.50;42.50;;;;;;;;5018721;28;51509;-51
2023/02/08 06:41:26;;;;;;;;;50.50;41.00;;;;;;;;5018364;28;51698;-48
2023/02/08 06:44:10;;;;;;;;;51.25;41.00;;;;;;;;5021203;28;51885;-49
2023/02/08 06:46:54;;;;;;;;;52.75;42.50;;;;;;;;5022178;28;51402;-47
2023/02/08 06:49:39;;;;;;;;;55.00;43.75;;;;;;;;5016621;28;51430;-53
2023/02/08 06:52:23;;;;;;;;;62.25;44.50;;;;;;;;5018021;28;51208;-50
2023/02/08 06:55:08;;;;;;;;;55.00;42.25;;;;;;;;5020766;28;51449;-49
2023/02/08 06:57:53;;;;;;;;;55.00;42.25;;;;;;;;5017308;28;51262;-50
2023/02/08 07:00:37;;;;;;;;;59.50;45.75;;;;;;;;5019911;28;51141;-46
2023/02/08 07:03:22;;;;;;;;;60.50;46.75;;;;;;;;5017812;28;51614;-47
2023/02/08 07:06:17;;;;;;;;;56.75;43.75;;;;;;;;5017391;28;51735;-46
2023/02/08 07:09:03;;;;;;;;;59.75;45.25;;;;;;;;5017589;28;51211;-50
2023/02/08 07:11:47;;;;;;;;;59.00;45.00;;;;;;;;5017501;28;51407;-53
2023/02/08 07:14:32;;;;;;;;;51.75;38.25;;;;;;;;5017371;28;51339;-48
2023/02/08 07:17:17;;;;;;;;;52.00;43.50;;;;;;;;5019257;28;51208;-49
2023/02/08 07:20:01;;;;;;;;;54.50;44.00;;;;;;;;5018227;28;52080;-49
2023/02/08 07:22:45;;;;;;;;;61.50;46.00;;;;;;;;5015858;28;51493;-50
2023/02/08 07:25:30;;;;;;;;;51.75;37.75;;;;;;;;5016721;28;51209;-49
2023/02/08 07:28:14;;;;;;;;;53.00;39.50;;;;;;;;5015961;28;52809;-50
2023/02/08 07:30:59;;;;;;;;;50.50;40.00;;;;;;;;5016165;28;51164;-49
2023/02/08 07:33:43;;;;;;;;;45.75;37.50;;;;;;;;5015836;28;51247;-48
2023/02/08 07:36:28;;;;;;;;;45.50;37.75;;;;;;;;5017971;28;51059;-47
2023/02/08 07:39:12;;;;;;;;;58.50;44.25;;;;;;;;5017473;28;52245;-47
2023/02/08 07:41:57;;;;;;;;;55.75;42.25;;;;;;;;5014940;28;51068;-49
2023/02/08 07:44:42;;;;;;;;;45.50;37.25;;;;;;;;5013057;28;51693;-47
2023/02/08 07:47:26;;;;;;;;;47.50;35.25;;;;;;;;5014860;28;51197;-51
2023/02/08 07:50:10;;;;;;;;;53.50;39.75;;;;;;;;5015636;28;51089;-47
2023/02/08 07:52:55;;;;;;;;;50.25;40.25;;;;;;;;5017072;28;51113;-52
2023/02/08 07:55:39;;;;;;;;;50.00;40.25;;;;;;;;5016348;28;52365;-50
2023/02/08 07:58:24;;;;;;;;;47.50;36.50;;;;;;;;5017262;28;51316;-50
2023/02/08 08:01:08;;;;;;;;;46.00;33.25;;;;;;;;5016040;28;51178;-49
2023/02/08 08:03:52;;;;;;;;;39.25;35.00;;;;;;;;5015888;28;51398;-50
2023/02/08 08:06:37;;;;;;;;;48.00;37.00;;;;;;;;5016067;28;51512;-47
2023/02/08 08:09:23;;;;;;;;;45.00;33.50;;;;;;;;5017084;28;51149;-49
2023/02/08 08:12:07;;;;;;;;;38.75;33.50;;;;;;;;5013741;28;51166;-51
2023/02/08 08:14:51;;;;;;;;;45.25;37.75;;;;;;;;5016001;28;51081;-49
2023/02/08 08:17:36;;;;;;;;;45.50;36.50;;;;;;;;5016225;28;51172;-48
2023/02/08 08:20:20;;;;;;;;;43.75;35.50;;;;;;;;5016351;28;52805;-51
2023/02/08 08:23:05;;;;;;;;;47.75;35.00;;;;;;;;5014672;28;51327;-51
2023/02/08 08:25:49;;;;;;;;;43.25;32.75;;;;;;;;5016152;28;51125;-48
2023/02/08 08:28:33;;;;;;;;;30.75;27.00;;;;;;;;5016202;28;51460;-50
2023/02/08 08:31:21;;;;;;;;;41.00;31.25;;;;;;;;5012032;28;51085;-46
2023/02/08 08:34:05;;;;;;;;;37.75;30.75;;;;;;;;5016190;28;51451;-49
